createdAt,value
2023-05-02T00:00:37.709Z,100572.06
2023-05-02T00:03:05.237Z,100566.75
2023-05-02T00:05:32.030Z,100571.16
2023-05-02T00:07:58.782Z,100564.97
2023-05-02T00:10:25.331Z,100565.84
2023-05-02T00:12:51.813Z,100565.84
2023-05-02T00:15:18.428Z,100574.72
2023-05-02T00:17:44.916Z,100560.53
2023-05-02T00:20:12.340Z,100567.63
2023-05-02T00:22:39.193Z,100565.84
2023-05-02T00:25:06.492Z,100566.75
2023-05-02T00:27:33.310Z,100564.09
2023-05-02T00:30:01.102Z,100569.38
2023-05-02T00:32:28.272Z,100569.38
2023-05-02T00:34:54.885Z,100567.63
2023-05-02T00:37:21.557Z,100572.91
2023-05-02T00:39:48.133Z,100580.03
2023-05-02T00:42:15.471Z,100578.25
2023-05-02T00:44:42.001Z,100572.91
2023-05-02T00:47:08.618Z,100574.66
2023-05-02T00:49:35.122Z,100564.94
2023-05-02T00:52:02.562Z,100571.13
2023-05-02T00:54:31.023Z,100576.41
2023-05-02T00:56:57.584Z,100579.06
2023-05-02T00:59:24.680Z,100578.19
2023-05-02T01:02:19.625Z,100576.38
2023-05-02T01:05:00.051Z,100577.22
2023-05-02T01:07:46.159Z,100576.34
2023-05-02T01:10:34.330Z,100571.03
2023-05-02T01:13:09.997Z,100580.75
2023-05-02T01:15:39.253Z,100586.06
2023-05-02T01:18:09.104Z,100581.63
2023-05-02T01:20:39.139Z,100580.72
2023-05-02T01:23:33.076Z,100577.16
2023-05-02T01:26:21.384Z,100583.38
2023-05-02T01:29:08.367Z,100586.88
2023-05-02T01:31:37.896Z,100596.63
2023-05-02T01:34:10.350Z,100593.97
2023-05-02T01:36:43.478Z,100595.72
2023-05-02T01:39:13.375Z,100593.06
2023-05-02T01:41:41.776Z,100598.38
2023-05-02T01:44:09.955Z,100594.81
2023-05-02T01:46:40.240Z,100596.56
2023-05-02T01:49:09.207Z,100601.88
2023-05-02T01:51:46.149Z,100597.44
2023-05-02T01:54:15.226Z,100600.09
2023-05-02T01:56:43.473Z,100593.00
2023-05-02T01:59:14.306Z,100595.66
2023-05-02T02:01:43.547Z,100595.66
2023-05-02T02:04:13.425Z,100593.00
2023-05-02T02:06:44.328Z,100593.88
2023-05-02T02:09:11.010Z,100598.28
2023-05-02T02:11:46.558Z,100607.13
2023-05-02T02:14:20.253Z,100603.59
2023-05-02T02:16:47.092Z,100611.53
2023-05-02T02:19:15.471Z,100616.81
2023-05-02T02:21:48.157Z,100608.84
2023-05-02T02:24:17.759Z,100615.06
2023-05-02T02:26:44.471Z,100616.84
2023-05-02T02:29:11.358Z,100620.41
2023-05-02T02:31:39.771Z,100619.50
2023-05-02T02:34:06.717Z,100623.91
2023-05-02T02:36:39.704Z,100632.78
2023-05-02T02:39:13.512Z,100626.56
2023-05-02T02:42:07.513Z,100628.38
2023-05-02T02:44:47.790Z,100633.66
2023-05-02T02:47:41.367Z,100646.03
2023-05-02T02:50:10.914Z,100646.88
2023-05-02T02:52:48.910Z,100647.75
2023-05-02T02:55:46.807Z,100652.16
2023-05-02T02:58:46.326Z,100649.44
2023-05-02T03:01:19.786Z,100655.63
2023-05-02T03:03:48.278Z,100653.81
2023-05-02T03:06:17.214Z,100662.63
2023-05-02T03:08:44.901Z,100667.00
2023-05-02T03:11:16.531Z,100673.06
2023-05-02T03:13:43.137Z,100675.66
2023-05-02T03:16:32.268Z,100675.63
2023-05-02T03:18:59.460Z,100680.88
2023-05-02T03:21:26.014Z,100679.13
2023-05-02T03:23:54.020Z,100679.13
2023-05-02T03:26:21.262Z,100680.88
2023-05-02T03:28:48.924Z,100687.06
2023-05-02T03:31:21.877Z,100687.06
2023-05-02T03:33:49.703Z,100694.97
2023-05-02T03:36:16.579Z,100693.22
2023-05-02T03:38:43.036Z,100696.72
2023-05-02T03:41:12.279Z,100700.25
2023-05-02T03:43:39.211Z,100699.34
2023-05-02T03:46:08.886Z,100699.34
2023-05-02T03:48:39.020Z,100708.16
2023-05-02T03:51:10.034Z,100714.34
2023-05-02T03:53:42.412Z,100709.03
2023-05-02T03:56:09.374Z,100715.22
2023-05-02T03:58:46.512Z,100721.44
2023-05-02T04:01:15.359Z,100714.34
2023-05-02T04:03:43.745Z,100720.53
2023-05-02T04:06:13.325Z,100718.78
2023-05-02T04:08:42.509Z,100722.28
2023-05-02T04:11:09.480Z,100725.81
2023-05-02T04:13:36.225Z,100726.69
2023-05-02T04:16:02.888Z,100732.88
2023-05-02T04:18:32.489Z,100734.69
2023-05-02T04:21:00.553Z,100734.69
2023-05-02T04:23:27.113Z,100741.75
2023-05-02T04:25:58.742Z,100748.84
2023-05-02T04:28:36.236Z,100749.72
2023-05-02T04:31:04.202Z,100750.63
2023-05-02T04:33:31.775Z,100753.28
2023-05-02T04:35:59.173Z,100748.03
2023-05-02T04:38:25.837Z,100754.19
2023-05-02T04:40:52.508Z,100761.28
2023-05-02T04:43:24.914Z,100760.41
2023-05-02T04:45:56.847Z,100756.06
2023-05-02T04:48:27.688Z,100764.91
2023-05-02T04:50:54.264Z,100768.44
2023-05-02T04:53:24.200Z,100776.47
2023-05-02T04:55:50.945Z,100779.97
2023-05-02T04:58:17.587Z,100779.97
2023-05-02T05:00:47.961Z,100786.19
2023-05-02T05:03:14.709Z,100779.13
2023-05-02T05:05:41.452Z,100790.66
2023-05-02T05:08:12.141Z,100794.19
2023-05-02T05:10:40.896Z,100788.00
2023-05-02T05:13:08.507Z,100804.75
2023-05-02T05:15:35.157Z,100805.63
2023-05-02T05:18:03.081Z,100817.97
2023-05-02T05:20:29.674Z,100817.06
2023-05-02T05:22:58.723Z,100812.63
2023-05-02T05:25:27.628Z,100816.16
2023-05-02T05:27:56.349Z,100826.75
2023-05-02T05:30:25.081Z,100824.09
2023-05-02T05:32:53.418Z,100832.06
2023-05-02T05:35:21.247Z,100834.72
2023-05-02T05:37:47.727Z,100837.34
2023-05-02T05:40:16.978Z,100840.91
2023-05-02T05:42:47.781Z,100840.84
2023-05-02T05:45:21.581Z,100854.94
2023-05-02T05:47:48.334Z,100855.75
2023-05-02T05:50:15.045Z,100865.41
2023-05-02T05:52:43.348Z,100876.78
2023-05-02T05:55:10.268Z,100863.44
2023-05-02T05:57:37.306Z,100872.25
2023-05-02T06:00:04.797Z,100876.53
2023-05-02T06:02:42.363Z,100888.84
2023-05-02T06:05:14.925Z,100880.78
2023-05-02T06:07:42.692Z,100888.66
2023-05-02T06:10:10.958Z,100894.69
2023-05-02T06:12:39.433Z,100900.75
2023-05-02T06:15:07.630Z,100904.13
2023-05-02T06:17:35.041Z,100903.97
2023-05-02T06:20:01.918Z,100923.31
2023-05-02T06:22:28.726Z,100930.03
2023-05-02T06:24:56.076Z,100928.16
2023-05-02T06:27:22.577Z,100943.94
2023-05-02T06:29:52.543Z,100955.13
2023-05-02T06:32:19.382Z,100960.28
2023-05-02T06:34:46.299Z,100957.63
2023-05-02T06:37:12.832Z,100956.66
2023-05-02T06:39:39.352Z,100969.03
2023-05-02T06:42:06.002Z,100998.75
2023-05-02T06:44:33.807Z,100993.06
2023-05-02T06:47:00.553Z,101003.31
2023-05-02T06:49:27.100Z,101004.00
2023-05-02T06:51:53.625Z,100996.84
2023-05-02T06:54:21.788Z,101012.84
2023-05-02T06:56:48.386Z,101020.84
2023-05-02T06:59:16.899Z,101020.88
2023-05-02T07:01:46.566Z,101024.41
2023-05-02T07:04:13.214Z,101035.19
2023-05-02T07:06:40.896Z,101030.28
2023-05-02T07:09:07.553Z,101040.22
2023-05-02T07:11:34.136Z,101042.28
2023-05-02T07:14:00.730Z,101039.28
2023-05-02T07:16:28.022Z,101051.94
2023-05-02T07:18:54.587Z,101051.31
2023-05-02T07:21:21.291Z,101060.03
2023-05-02T07:23:47.890Z,101065.47
2023-05-02T07:26:14.444Z,101065.28
2023-05-02T07:28:41.140Z,101072.34
2023-05-02T07:31:07.728Z,101082.13
2023-05-02T07:33:34.595Z,101085.56
2023-05-02T07:36:02.780Z,101090.81
2023-05-02T07:38:29.467Z,101090.91
2023-05-02T07:40:59.382Z,101087.59
2023-05-02T07:43:26.449Z,101094.72
2023-05-02T07:45:53.069Z,101101.78
2023-05-02T07:48:20.286Z,101092.22
2023-05-02T07:50:46.874Z,101099.34
2023-05-02T07:53:13.408Z,101107.41
2023-05-02T07:55:39.886Z,101109.94
2023-05-02T07:58:06.424Z,101111.94
2023-05-02T08:00:33.011Z,101111.19
2023-05-02T08:02:59.780Z,101112.31
2023-05-02T08:05:26.734Z,101107.22
2023-05-02T08:07:53.343Z,101111.00
2023-05-02T08:10:20.258Z,101120.13
2023-05-02T08:12:46.800Z,101125.66
2023-05-02T08:15:16.132Z,101129.28
2023-05-02T08:17:42.706Z,101115.19
2023-05-02T08:20:09.596Z,101123.28
2023-05-02T08:22:36.120Z,101129.69
2023-05-02T08:25:02.735Z,101147.34
2023-05-02T08:27:29.314Z,101145.72
2023-05-02T08:29:57.389Z,101145.03
2023-05-02T08:32:25.574Z,101155.84
2023-05-02T08:34:55.990Z,101149.91
2023-05-02T08:37:23.102Z,101163.16
2023-05-02T08:39:49.642Z,101185.34
2023-05-02T08:42:16.180Z,101170.22
2023-05-02T08:44:42.789Z,101166.69
2023-05-02T08:47:13.589Z,101170.38
2023-05-02T08:49:41.150Z,101177.47
2023-05-02T08:52:09.318Z,101179.38
2023-05-02T08:54:37.783Z,101179.53
2023-05-02T08:57:05.629Z,101192.78
2023-05-02T08:59:32.118Z,101199.75
2023-05-02T09:02:17.973Z,101190.84
2023-05-02T09:04:47.957Z,101199.75
2023-05-02T09:07:15.365Z,101207.72
2023-05-02T09:09:41.947Z,101219.88
2023-05-02T09:12:08.438Z,101214.31
2023-05-02T09:14:35.009Z,101228.19
2023-05-02T09:17:01.985Z,101224.66
2023-05-02T09:19:28.777Z,101233.56
2023-05-02T09:22:01.601Z,101231.91
2023-05-02T09:24:29.599Z,101237.19
2023-05-02T09:27:02.648Z,101240.78
2023-05-02T09:29:37.749Z,101262.81
2023-05-02T09:32:05.759Z,101256.72
2023-05-02T09:34:32.781Z,101259.63
2023-05-02T09:36:59.265Z,101248.31
2023-05-02T09:39:30.949Z,101258.19
2023-05-02T09:41:58.673Z,101258.31
2023-05-02T09:44:27.075Z,101269.84
2023-05-02T09:46:55.244Z,101261.06
2023-05-02T09:49:45.438Z,101275.00
2023-05-02T09:52:16.715Z,101289.94
2023-05-02T09:54:43.695Z,101286.19
2023-05-02T09:57:11.256Z,101278.25
2023-05-02T10:02:07.537Z,101286.19
2023-05-02T10:04:34.799Z,101297.69
2023-05-02T10:07:03.412Z,101298.63
2023-05-02T10:09:32.863Z,101281.06
2023-05-02T10:12:06.661Z,101291.19
2023-05-02T10:14:39.811Z,101300.13
2023-05-02T10:17:13.963Z,101295.72
2023-05-02T10:20:06.706Z,101306.50
2023-05-02T10:22:36.961Z,101309.13
2023-05-02T10:25:04.355Z,101316.22
2023-05-02T10:27:32.610Z,101315.38
2023-05-02T10:30:01.108Z,101312.91
2023-05-02T10:32:33.476Z,101310.50
2023-05-02T10:35:04.970Z,101320.50
2023-05-02T10:37:35.829Z,101317.00
2023-05-02T10:40:03.286Z,101318.78
2023-05-02T10:42:30.726Z,101329.38
2023-05-02T10:44:58.130Z,101328.53
2023-05-02T10:47:27.081Z,101325.72
2023-05-02T10:49:54.993Z,101322.34
2023-05-02T10:52:33.248Z,101335.78
2023-05-02T10:55:22.333Z,101319.59
2023-05-02T10:58:00.696Z,101325.03
2023-05-02T11:00:32.535Z,101319.81
2023-05-02T11:03:00.426Z,101329.59
2023-05-02T11:05:28.014Z,101330.56
2023-05-02T11:08:17.508Z,101329.78
2023-05-02T11:10:47.699Z,101327.22
2023-05-02T11:13:14.305Z,101327.34
2023-05-02T11:15:40.877Z,101337.09
2023-05-02T11:18:12.821Z,101329.09
2023-05-02T11:20:44.105Z,101331.75
2023-05-02T11:23:22.738Z,101325.59
2023-05-02T11:25:50.774Z,101332.69
2023-05-02T11:28:44.524Z,101330.16
2023-05-02T11:31:29.076Z,101337.25
2023-05-02T11:34:03.285Z,101336.28
2023-05-02T11:36:34.374Z,101338.06
2023-05-02T11:39:02.667Z,101335.47
2023-05-02T11:41:42.549Z,101347.97
2023-05-02T11:44:09.485Z,101353.22
2023-05-02T11:46:40.628Z,101345.28
2023-05-02T11:49:09.707Z,101339.00
2023-05-02T11:51:37.376Z,101346.94
2023-05-02T11:54:04.240Z,101354.94
2023-05-02T11:56:31.438Z,101357.56
2023-05-02T11:58:59.942Z,101345.22
2023-05-02T12:01:26.755Z,101363.00
2023-05-02T12:04:04.172Z,101347.06
2023-05-02T12:06:30.830Z,101354.25
2023-05-02T12:09:12.869Z,101361.47
2023-05-02T12:11:39.520Z,101356.22
2023-05-02T12:14:06.823Z,101362.44
2023-05-02T12:16:34.115Z,101363.31
2023-05-02T12:19:01.333Z,101368.66
2023-05-02T12:21:29.988Z,101362.41
2023-05-02T12:23:57.179Z,101371.31
2023-05-02T12:26:25.656Z,101368.59
2023-05-02T12:28:54.787Z,101365.94
2023-05-02T12:31:22.003Z,101365.03
2023-05-02T12:33:50.206Z,101383.63
2023-05-02T12:36:17.659Z,101378.25
2023-05-02T12:38:59.311Z,101380.53
2023-05-02T12:41:33.924Z,101373.81
2023-05-02T12:44:01.155Z,101384.06
2023-05-02T12:46:28.487Z,101378.50
2023-05-02T12:49:09.511Z,101374.81
2023-05-02T12:51:37.010Z,101377.44
2023-05-02T12:54:04.506Z,101375.81
2023-05-02T12:56:38.686Z,101379.41
2023-05-02T12:59:05.772Z,101391.94
2023-05-02T13:01:34.330Z,101401.00
2023-05-02T13:04:01.370Z,101384.34
2023-05-02T13:06:27.989Z,101396.06
2023-05-02T13:08:54.548Z,101392.66
2023-05-02T13:11:21.093Z,101399.75
2023-05-02T13:13:47.636Z,101391.03
2023-05-02T13:16:14.243Z,101384.94
2023-05-02T13:18:40.966Z,101390.34
2023-05-02T13:21:07.947Z,101402.59
2023-05-02T13:23:34.636Z,101404.06
2023-05-02T13:26:01.146Z,101405.56
2023-05-02T13:28:29.104Z,101411.53
2023-05-02T13:30:55.675Z,101415.13
2023-05-02T13:33:22.250Z,101413.53
2023-05-02T13:35:48.697Z,101416.22
2023-05-02T13:38:15.307Z,101415.25
2023-05-02T13:40:41.832Z,101414.31
2023-05-02T13:43:08.549Z,101410.16
2023-05-02T13:45:35.492Z,101415.72
2023-05-02T13:48:02.149Z,101412.66
2023-05-02T13:50:28.820Z,101411.09
2023-05-02T13:52:55.398Z,101405.81
2023-05-02T13:55:22.422Z,101416.47
2023-05-02T13:57:49.825Z,101416.09
2023-05-02T14:00:16.900Z,101416.75
2023-05-02T14:02:46.910Z,101408.69
2023-05-02T14:05:13.616Z,101417.84
2023-05-02T14:07:40.312Z,101408.41
2023-05-02T14:10:07.490Z,101417.44
2023-05-02T14:12:34.065Z,101418.31
2023-05-02T14:15:00.720Z,101418.22
2023-05-02T14:17:27.301Z,101427.06
2023-05-02T14:19:53.844Z,101431.31
2023-05-02T14:22:20.684Z,101426.66
2023-05-02T14:24:47.436Z,101438.94
2023-05-02T14:27:18.205Z,101438.78
2023-05-02T14:29:48.188Z,101437.66
2023-05-02T14:32:15.296Z,101439.16
2023-05-02T14:34:42.040Z,101437.13
2023-05-02T14:37:11.813Z,101437.91
2023-05-02T14:39:40.122Z,101444.13
2023-05-02T14:42:06.694Z,101445.88
2023-05-02T14:44:33.221Z,101453.88
2023-05-02T14:46:59.768Z,101455.66
2023-05-02T14:49:27.348Z,101453.91
2023-05-02T14:51:55.634Z,101456.63
2023-05-02T14:54:28.551Z,101459.28
2023-05-02T14:56:55.135Z,101456.69
2023-05-02T14:59:21.873Z,101454.09
2023-05-02T15:01:49.160Z,101447.97
2023-05-02T15:04:17.993Z,101454.25
2023-05-02T15:06:45.181Z,101455.31
2023-05-02T15:09:12.800Z,101476.56
2023-05-02T15:11:39.513Z,101465.00
2023-05-02T15:14:06.026Z,101466.72
2023-05-02T15:16:32.610Z,101476.31
2023-05-02T15:18:59.193Z,101472.75
2023-05-02T15:21:25.825Z,101478.97
2023-05-02T15:23:52.344Z,101480.69
2023-05-02T15:26:18.856Z,101484.72
2023-05-02T15:28:45.786Z,101498.91
2023-05-02T15:31:12.277Z,101486.56
2023-05-02T15:33:38.906Z,101484.09
2023-05-02T15:36:05.694Z,101492.19
2023-05-02T15:38:34.053Z,101492.41
2023-05-02T15:41:00.690Z,101500.84
2023-05-02T15:43:27.824Z,101508.47
2023-05-02T15:45:56.415Z,101501.91
2023-05-02T15:48:24.178Z,101525.44
2023-05-02T15:50:52.363Z,101510.13
2023-05-02T15:53:22.085Z,101521.59
2023-05-02T15:55:49.761Z,101530.19
2023-05-02T15:58:16.529Z,101522.88
2023-05-02T16:00:43.776Z,101534.13
2023-05-02T16:03:12.292Z,101541.19
2023-05-02T16:05:39.748Z,101531.56
2023-05-02T16:08:06.333Z,101544.03
2023-05-02T16:10:33.043Z,101534.38
2023-05-02T16:12:59.690Z,101537.97
2023-05-02T16:15:26.606Z,101554.78
2023-05-02T16:17:53.265Z,101549.34
2023-05-02T16:20:19.841Z,101559.75
2023-05-02T16:22:47.664Z,101559.53
2023-05-02T16:25:16.129Z,101554.84
2023-05-02T16:27:42.889Z,101564.38
2023-05-02T16:30:09.756Z,101558.88
2023-05-02T16:32:40.921Z,101560.38
2023-05-02T16:35:10.700Z,101569.13
2023-05-02T16:37:37.454Z,101560.25
2023-05-02T16:40:06.032Z,101554.75
2023-05-02T16:42:33.081Z,101554.53
2023-05-02T16:44:59.784Z,101557.94
2023-05-02T16:47:26.947Z,101571.94
2023-05-02T16:49:57.701Z,101575.22
2023-05-02T16:52:24.952Z,101569.72
2023-05-02T16:54:52.101Z,101564.25
2023-05-02T16:57:19.958Z,101566.75
2023-05-02T16:59:51.252Z,101571.13
2023-05-02T17:02:22.572Z,101572.84
2023-05-02T17:04:50.077Z,101573.75
2023-05-02T17:07:17.343Z,101572.78
2023-05-02T17:09:44.621Z,101570.88
2023-05-02T17:12:12.205Z,101577.81
2023-05-02T17:14:42.395Z,101575.94
2023-05-02T17:17:10.291Z,101582.78
2023-05-02T17:19:37.391Z,101579.09
2023-05-02T17:22:05.089Z,101590.53
2023-05-02T17:24:32.477Z,101580.69
2023-05-02T17:26:59.363Z,101593.81
2023-05-02T17:29:25.930Z,101589.16
2023-05-02T17:31:52.561Z,101580.19
2023-05-02T17:34:19.088Z,101580.97
2023-05-02T17:36:46.360Z,101584.38
2023-05-02T17:39:13.483Z,101592.19
2023-05-02T17:41:40.132Z,101597.38
2023-05-02T17:44:09.596Z,101592.00
2023-05-02T17:46:37.629Z,101587.56
2023-05-02T17:49:04.519Z,101591.03
2023-05-02T17:51:33.669Z,101593.63
2023-05-02T17:54:00.701Z,101597.13
2023-05-02T17:56:27.448Z,101599.84
2023-05-02T17:58:54.221Z,101599.88
2023-05-02T18:01:20.836Z,101611.28
2023-05-02T18:03:48.239Z,101613.94
2023-05-02T18:06:16.701Z,101615.72
2023-05-02T18:08:43.921Z,101615.63
2023-05-02T18:11:15.557Z,101617.38
2023-05-02T18:13:42.225Z,101619.91
2023-05-02T18:16:08.898Z,101628.72
2023-05-02T18:18:36.506Z,101631.34
2023-05-02T18:21:03.593Z,101629.63
2023-05-02T18:23:30.143Z,101634.00
2023-05-02T18:25:56.733Z,101630.41
2023-05-02T18:28:23.231Z,101633.84
2023-05-02T18:30:49.668Z,101635.63
2023-05-02T18:33:16.220Z,101627.53
2023-05-02T18:35:47.578Z,101631.88
2023-05-02T18:38:14.388Z,101634.47
2023-05-02T18:40:41.202Z,101637.03
2023-05-02T18:43:07.723Z,101644.97
2023-05-02T18:45:35.748Z,101638.72
2023-05-02T18:48:03.397Z,101647.50
2023-05-02T18:50:30.115Z,101642.16
2023-05-02T18:52:56.670Z,101637.69
2023-05-02T18:55:25.252Z,101634.16
2023-05-02T18:57:52.258Z,101641.16
2023-05-02T19:00:20.398Z,101644.63
2023-05-02T19:02:47.823Z,101646.34
2023-05-02T19:05:15.141Z,101647.13
2023-05-02T19:07:42.385Z,101652.31
2023-05-02T19:10:10.942Z,101648.72
2023-05-02T19:12:37.525Z,101653.03
2023-05-02T19:15:06.438Z,101665.19
2023-05-02T19:17:33.411Z,101661.53
2023-05-02T19:19:59.965Z,101668.34
2023-05-02T19:22:27.698Z,101670.69
2023-05-02T19:24:54.382Z,101674.75
2023-05-02T19:27:21.019Z,101677.09
2023-05-02T19:29:47.632Z,101687.44
2023-05-02T19:32:14.734Z,101681.91
2023-05-02T19:34:41.607Z,101687.16
2023-05-02T19:37:08.230Z,101690.53
2023-05-02T19:39:34.760Z,101700.88
2023-05-02T19:42:03.060Z,101696.41
2023-05-02T19:44:29.952Z,101703.25
2023-05-02T19:46:56.419Z,101697.84
2023-05-02T19:49:22.981Z,101707.31
2023-05-02T19:51:49.839Z,101710.56
2023-05-02T19:54:16.447Z,101705.97
2023-05-02T19:56:43.328Z,101710.25
2023-05-02T19:59:09.910Z,101713.59
2023-05-02T20:01:36.526Z,101716.06
2023-05-02T20:04:03.243Z,101718.78
2023-05-02T20:06:31.470Z,101722.47
2023-05-02T20:08:58.196Z,101721.75
2023-05-02T20:11:25.779Z,101725.44
2023-05-02T20:13:52.307Z,101727.38
2023-05-02T20:16:18.855Z,101732.69
2023-05-02T20:18:45.460Z,101720.41
2023-05-02T20:21:12.057Z,101732.81
2023-05-02T20:23:40.185Z,101723.06
2023-05-02T20:26:06.869Z,101731.84
2023-05-02T20:28:33.527Z,101723.88
2023-05-02T20:31:01.965Z,101733.47
2023-05-02T20:33:41.254Z,101730.78
2023-05-02T20:36:12.652Z,101735.00
2023-05-02T20:38:42.331Z,101745.38
2023-05-02T20:41:13.166Z,101742.56
2023-05-02T20:43:41.235Z,101743.19
2023-05-02T20:46:12.624Z,101737.56
2023-05-02T20:48:39.656Z,101748.59
2023-05-02T20:51:06.722Z,101750.06
2023-05-02T20:53:33.352Z,101744.47
2023-05-02T20:55:59.917Z,101755.72
2023-05-02T20:58:26.781Z,101748.47
2023-05-02T21:00:54.128Z,101757.19
2023-05-02T21:03:21.611Z,101748.31
2023-05-02T21:05:52.718Z,101758.84
2023-05-02T21:08:19.617Z,101757.19
2023-05-02T21:10:46.540Z,101758.00
2023-05-02T21:13:13.544Z,101759.69
2023-05-02T21:15:40.588Z,101755.09
2023-05-02T21:18:07.486Z,101754.84
2023-05-02T21:20:34.822Z,101758.88
2023-05-02T21:23:02.331Z,101755.84
2023-05-02T21:25:28.889Z,101762.59
2023-05-02T21:27:56.649Z,101760.53
2023-05-02T21:30:24.543Z,101760.28
2023-05-02T21:32:51.341Z,101775.81
2023-05-02T21:35:17.878Z,101765.09
2023-05-02T21:37:44.426Z,101768.38
2023-05-02T21:40:11.463Z,101763.75
2023-05-02T21:42:38.489Z,101774.00
2023-05-02T21:45:05.882Z,101770.28
2023-05-02T21:47:32.678Z,101773.59
2023-05-02T21:49:59.220Z,101781.31
2023-05-02T21:52:25.801Z,101776.69
2023-05-02T21:54:52.564Z,101784.34
2023-05-02T21:57:19.376Z,101786.88
2023-05-02T21:59:46.172Z,101794.47
2023-05-02T22:02:12.876Z,101785.47
2023-05-02T22:04:39.638Z,101792.28
2023-05-02T22:07:06.200Z,101786.72
2023-05-02T22:09:33.675Z,101790.06
2023-05-02T22:12:00.365Z,101789.78
2023-05-02T22:14:33.868Z,101788.75
2023-05-02T22:17:08.271Z,101792.06
2023-05-02T22:19:34.839Z,101788.38
2023-05-02T22:22:05.316Z,101796.03
2023-05-02T22:24:31.909Z,101794.06
2023-05-02T22:26:58.401Z,101788.56
2023-05-02T22:29:25.027Z,101784.91
2023-05-02T22:31:52.196Z,101791.75
2023-05-02T22:34:19.158Z,101801.22
2023-05-02T22:36:45.962Z,101798.44
2023-05-02T22:39:14.453Z,101796.56
2023-05-02T22:41:44.270Z,101806.09
2023-05-02T22:44:11.318Z,101801.59
2023-05-02T22:46:39.001Z,101797.19
2023-05-02T22:49:10.291Z,101798.91
2023-05-02T22:51:39.951Z,101796.97
2023-05-02T22:54:08.095Z,101804.63
2023-05-02T22:56:34.955Z,101800.09
2023-05-02T22:59:01.854Z,101807.03
2023-05-02T23:01:28.520Z,101799.81
2023-05-02T23:03:55.160Z,101803.25
2023-05-02T23:06:21.723Z,101801.34
2023-05-02T23:08:48.547Z,101794.19
2023-05-02T23:11:15.052Z,101792.31
2023-05-02T23:13:41.774Z,101791.25
2023-05-02T23:16:08.428Z,101802.44
2023-05-02T23:18:34.957Z,101795.25
2023-05-02T23:21:04.137Z,101802.88
2023-05-02T23:23:30.897Z,101812.34
2023-05-02T23:25:57.518Z,101814.81
2023-05-02T23:28:24.029Z,101814.50
2023-05-02T23:30:50.653Z,101806.41
2023-05-02T23:33:17.264Z,101812.25
2023-05-02T23:35:43.789Z,101806.81
2023-05-02T23:38:10.390Z,101804.91
2023-05-02T23:40:36.932Z,101803.00
2023-05-02T23:43:03.557Z,101815.06
2023-05-02T23:45:30.036Z,101814.94
2023-05-02T23:47:56.558Z,101809.47
2023-05-02T23:50:23.168Z,101811.94
2023-05-02T23:52:49.717Z,101814.41
2023-05-02T23:55:16.832Z,101810.56
2023-05-02T23:57:43.338Z,101818.28
